Time;durP1;ratioP1;P1;durP2;ratioP2;P2;SDS_P1;SDS_P2;PMS_P1;PMS_P2;Temp;Humidity;BMP_temperature;BMP_pressure;BME280_temperature;BME280_humidity;BME280_pressure;Samples;Min_cycle;Max_cycle;Signal;HPM_P1;HPM_P2
2022/05/03 00:00:13;;;;;;;;;;;;;;;19.37;41.56;100928.40;102522;1330;61309;-83
2022/05/03 00:03:53;;;;;;;;;;;;;;;19.37;41.56;100928.21;102474;1331;61833;-83
2022/05/03 00:06:43;;;;;;;;;;;;;;;19.38;41.54;100927.30;101987;1338;74556;-82
2022/05/03 00:09:32;;;;;;;;;;;;;;;19.37;41.54;100926.09;102465;1332;76027;-82
2022/05/03 00:12:27;;;;;;;;;;;;;;;;;;;;;
2022/05/03 00:15:25;;;;;;;;;;;;;;;19.37;41.58;100922.88;101876;1339;62087;-85
2022/05/03 00:18:33;;;;;;;;;;;;;;;;;;;;;
2022/05/03 00:21:11;;;;;;;;;;;;;;;19.37;41.70;100917.91;102066;1335;74727;-85
2022/05/03 00:24:42;;;;;;;;;;;;;;;19.37;41.66;100918.06;102203;1335;61887;-84
2022/05/03 00:27:26;;;;;;;;;;;;;;;;;;;;;
2022/05/03 00:30:11;;;;;;;;;;;;;;;19.37;41.69;100921.83;102232;1329;73915;-83
2022/05/03 00:33:04;;;;;;;;;;;;;;;19.37;41.74;100918.77;102357;1335;76178;-83
2022/05/03 00:35:58;;;;;;;;;;;;;;;19.37;41.80;100916.12;102386;1334;61493;-82
2022/05/03 00:38:49;;;;;;;;;;;;;;;19.36;41.72;100914.39;102601;1332;61326;-86
2022/05/03 00:42:20;;;;;;;;;;;;;;;19.36;41.78;100915.27;102489;1332;72141;-83
2022/05/03 00:44:58;;;;;;;;;;;;;;;19.36;41.84;100915.44;102747;1325;74026;-81
2022/05/03 00:48:01;;;;;;;;;;;;;;;19.36;41.78;100912.41;103060;1323;61220;-81
2022/05/03 00:51:12;;;;;;;;;;;;;;;;;;;;;
2022/05/03 00:54:03;;;;;;;;;;;;;;;19.36;41.78;100913.48;104334;1311;72578;-85
2022/05/03 00:57:02;;;;;;;;;;;;;;;19.37;41.74;100917.92;104342;1311;75494;-83
2022/05/03 00:59:51;;;;;;;;;;;;;;;19.36;41.89;100914.75;103835;1319;61440;-84
2022/05/03 01:02:47;;;;;;;;;;;;;;;19.36;41.88;100914.75;103631;1319;61466;-81
2022/05/03 01:05:33;;;;;;;;;;;;;;;19.36;41.88;100911.73;103740;1316;74194;-83
2022/05/03 01:08:17;;;;;;;;;;;;;;;19.36;41.88;100913.16;103763;1314;75776;-82
2022/05/03 01:11:17;;;;;;;;;;;;;;;19.36;41.82;100911.55;104193;1314;61382;-85
2022/05/03 01:14:52;;;;;;;;;;;;;;;;;;;;;
2022/05/03 01:17:54;;;;;;;;;;;;;;;;;;;;;
2022/05/03 01:21:00;;;;;;;;;;;;;;;;;;;;;
2022/05/03 01:23:54;;;;;;;;;;;;;;;19.35;42.03;100910.52;103073;1323;61348;-82
2022/05/03 01:26:56;;;;;;;;;;;;;;;;;;;;;
2022/05/03 01:29:56;;;;;;;;;;;;;;;19.35;42.03;100911.60;103283;1323;74688;-83
2022/05/03 01:33:09;;;;;;;;;;;;;;;19.35;42.03;100911.25;103141;1323;74894;-78
2022/05/03 01:35:50;;;;;;;;;;;;;;;19.35;42.09;100907.67;102971;1323;61323;-83
2022/05/03 01:38:55;;;;;;;;;;;;;;;19.35;42.02;100906.95;104238;1314;61170;-87
2022/05/03 01:42:04;;;;;;;;;;;;;;;19.35;42.16;100905.34;104207;1312;73933;-82
2022/05/03 01:44:59;;;;;;;;;;;;;;;19.34;42.11;100905.92;103307;1323;75803;-82
2022/05/03 01:48:20;;;;;;;;;;;;;;;;;;;;;
2022/05/03 01:50:57;;;;;;;;;;;;;;;19.35;42.31;100903.95;103022;1325;61733;-82
2022/05/03 01:53:54;;;;;;;;;;;;;;;19.34;42.15;100901.84;102851;1325;72904;-83
2022/05/03 01:56:50;;;;;;;;;;;;;;;19.34;42.18;100900.06;103088;1318;74791;-83
2022/05/03 01:59:46;;;;;;;;;;;;;;;;;;;;;
2022/05/03 02:02:53;;;;;;;;;;;;;;;;;;;;;
2022/05/03 02:05:54;;;;;;;;;;;;;;;19.33;42.27;100899.20;102778;1326;72917;-84
2022/05/03 02:08:40;;;;;;;;;;;;;;;19.33;42.20;100903.69;102545;1329;74656;-82
2022/05/03 02:11:34;;;;;;;;;;;;;;;19.33;42.26;100901.17;102088;1338;61303;-83
2022/05/03 02:14:55;;;;;;;;;;;;;;;19.33;42.30;100902.60;102128;1335;61652;-84
2022/05/03 02:17:53;;;;;;;;;;;;;;;19.33;42.30;100903.87;102162;1335;72497;-78
2022/05/03 02:21:01;;;;;;;;;;;;;;;19.32;42.26;100907.46;101865;1341;74960;-78
2022/05/03 02:23:55;;;;;;;;;;;;;;;19.32;42.32;100904.81;102026;1335;61233;-88
2022/05/03 02:27:03;;;;;;;;;;;;;;;19.32;42.27;100910.50;102317;1335;61638;-85
2022/05/03 02:29:54;;;;;;;;;;;;;;;19.32;42.30;100909.98;101884;1341;73866;-84
2022/05/03 02:32:53;;;;;;;;;;;;;;;;;;;;;
2022/05/03 02:35:44;;;;;;;;;;;;;;;19.32;42.33;100900.35;101805;1344;61377;-81
2022/05/03 02:38:24;;;;;;;;;;;;;;;19.32;42.38;100898.21;101949;1338;61357;-81
2022/05/03 02:41:28;;;;;;;;;;;;;;;19.32;42.43;100897.70;101752;1344;71582;-83
2022/05/03 02:44:17;;;;;;;;;;;;;;;19.32;42.38;100893.92;101683;1344;73708;-82
2022/05/03 02:47:33;;;;;;;;;;;;;;;;;;;;;
2022/05/03 02:50:30;;;;;;;;;;;;;;;19.32;42.48;100895.92;101905;1338;61493;-82
2022/05/03 02:53:56;;;;;;;;;;;;;;;;;;;;;
2022/05/03 02:56:27;;;;;;;;;;;;;;;19.32;42.50;100895.92;102127;1335;74864;-83
2022/05/03 03:02:55;;;;;;;;;;;;;;;19.32;42.52;100895.40;102438;1335;61426;-84
2022/05/03 03:06:05;;;;;;;;;;;;;;;19.32;42.51;100894.33;102297;1335;71661;-83
2022/05/03 03:08:43;;;;;;;;;;;;;;;19.31;42.57;100893.45;102674;1329;74835;-83
2022/05/03 03:11:32;;;;;;;;;;;;;;;19.31;42.59;100892.02;103232;1322;61246;-85
2022/05/03 03:14:21;;;;;;;;;;;;;;;19.31;42.55;100892.57;103095;1323;61290;-81
2022/05/03 03:17:27;;;;;;;;;;;;;;;19.31;42.54;100893.64;103288;1323;72877;-85
2022/05/03 03:20:26;;;;;;;;;;;;;;;19.31;42.52;100894.34;104149;1314;76121;-82
2022/05/03 03:22:51;;;;;;;;;;;;;;;19.31;42.67;100892.41;104583;1309;61164;-80
2022/05/03 03:26:02;;;;;;;;;;;;;;;19.30;42.56;100888.00;104554;1306;61198;-83
2022/05/03 03:29:01;;;;;;;;;;;;;;;;;;;;;
2022/05/03 03:31:58;;;;;;;;;;;;;;;19.29;42.61;100895.41;104202;1316;75965;-83
2022/05/03 03:34:25;;;;;;;;;;;;;;;19.27;42.65;100897.45;104200;1316;61289;-83
2022/05/03 03:37:34;;;;;;;;;;;;;;;19.26;42.56;100898.05;104179;1316;61835;-83
2022/05/03 03:40:39;;;;;;;;;;;;;;;19.24;42.50;100899.59;104157;1316;73019;-88
2022/05/03 03:43:27;;;;;;;;;;;;;;;19.22;42.81;100901.66;104084;1316;75090;-87
2022/05/03 03:46:01;;;;;;;;;;;;;;;19.21;42.57;100901.40;104130;1316;61432;-85
2022/05/03 03:51:32;;;;;;;;;;;;;;;19.19;42.51;100902.92;103066;1323;73447;-79
2022/05/03 03:54:33;;;;;;;;;;;;;;;;;;;;;
2022/05/03 03:57:27;;;;;;;;;;;;;;;19.17;42.50;100904.67;102994;1323;61197;-82
2022/05/03 03:59:58;;;;;;;;;;;;;;;19.16;42.48;100903.52;103141;1320;61314;-82
2022/05/03 04:02:34;;;;;;;;;;;;;;;19.15;42.30;100905.33;103352;1320;72962;-84
2022/05/03 04:06:25;;;;;;;;;;;;;;;19.14;42.27;100907.03;103379;1320;73632;-85
2022/05/03 04:08:51;;;;;;;;;;;;;;;19.13;42.36;100909.75;102818;1323;61359;-84
2022/05/03 04:12:06;;;;;;;;;;;;;;;19.12;42.30;100911.56;103356;1320;61329;-86
2022/05/03 04:14:52;;;;;;;;;;;;;;;19.11;42.39;100917.34;103240;1322;73707;-82
2022/05/03 04:17:49;;;;;;;;;;;;;;;;;;;;;
2022/05/03 04:20:49;;;;;;;;;;;;;;;19.10;42.35;100918.83;103377;1320;61203;-82
2022/05/03 04:26:45;;;;;;;;;;;;;;;19.09;42.31;100917.96;102155;1335;72615;-82
2022/05/03 04:29:31;;;;;;;;;;;;;;;19.09;42.29;100915.52;102436;1328;74887;-82
2022/05/03 04:32:12;;;;;;;;;;;;;;;19.08;42.31;100912.51;102111;1335;61182;-82
2022/05/03 04:35:07;;;;;;;;;;;;;;;19.08;42.25;100914.51;102149;1335;61242;-85
2022/05/03 04:37:50;;;;;;;;;;;;;;;19.07;42.29;100915.61;101566;1340;74235;-80
2022/05/03 04:40:21;;;;;;;;;;;;;;;19.07;42.36;100917.61;101578;1340;76024;-81
2022/05/03 04:42:51;;;;;;;;;;;;;;;19.07;42.27;100917.41;101456;1340;61286;-81
2022/05/03 04:45:20;;;;;;;;;;;;;;;19.07;42.23;100920.09;101304;1337;61570;-82
2022/05/03 04:47:46;;;;;;;;;;;;;;;19.06;42.29;100919.93;101502;1337;72760;-80
2022/05/03 04:50:12;;;;;;;;;;;;;;;19.06;42.27;100921.36;101360;1340;61574;-82
2022/05/03 04:52:37;;;;;;;;;;;;;;;19.04;42.30;100919.38;101443;1337;61313;-81
2022/05/03 04:55:07;;;;;;;;;;;;;;;19.01;42.32;100922.09;101397;1337;61410;-80
2022/05/03 04:57:37;;;;;;;;;;;;;;;18.99;42.34;100920.21;101293;1338;73024;-80
2022/05/03 05:00:03;;;;;;;;;;;;;;;18.98;42.28;100920.48;101224;1339;61360;-81
2022/05/03 05:02:28;;;;;;;;;;;;;;;18.96;42.39;100920.38;101680;1335;61734;-81
2022/05/03 05:04:54;;;;;;;;;;;;;;;18.95;42.36;100921.90;103091;1323;61728;-82
2022/05/03 05:07:19;;;;;;;;;;;;;;;18.90;42.38;100923.04;102512;1320;61393;-82
2022/05/03 05:12:32;;;;;;;;;;;;;;;18.90;42.60;100920.04;103183;1316;75806;-82
2022/05/03 05:14:59;;;;;;;;;;;;;;;18.92;42.54;100919.02;103353;1309;61332;-81
2022/05/03 05:17:24;;;;;;;;;;;;;;;18.94;42.57;100920.72;103831;1306;62368;-80
2022/05/03 05:19:50;;;;;;;;;;;;;;;18.96;42.55;100919.73;103813;1306;61451;-81
2022/05/03 05:22:15;;;;;;;;;;;;;;;18.97;42.72;100920.55;103900;1306;61480;-82
2022/05/03 05:24:41;;;;;;;;;;;;;;;18.98;42.62;100923.33;104096;1306;61311;-81
2022/05/03 05:27:10;;;;;;;;;;;;;;;19.00;42.53;100919.66;104007;1306;61637;-80
2022/05/03 05:29:35;;;;;;;;;;;;;;;19.00;42.60;100921.90;103922;1306;61393;-80
2022/05/03 05:32:01;;;;;;;;;;;;;;;19.01;42.59;100923.09;103913;1306;61400;-79
2022/05/03 05:34:26;;;;;;;;;;;;;;;19.03;42.69;100921.94;104194;1306;61317;-80
2022/05/03 05:37:01;;;;;;;;;;;;;;;19.03;42.61;100923.85;104168;1306;61844;-80
2022/05/03 05:39:26;;;;;;;;;;;;;;;19.04;42.69;100923.48;103865;1306;61228;-80
2022/05/03 05:41:53;;;;;;;;;;;;;;;19.05;42.61;100923.63;104020;1306;61399;-80
2022/05/03 05:44:44;;;;;;;;;;;;;;;19.05;42.73;100921.96;104090;1306;61238;-84
2022/05/03 05:47:19;;;;;;;;;;;;;;;19.06;42.53;100925.13;103540;1314;75651;-79
2022/05/03 05:49:44;;;;;;;;;;;;;;;19.06;42.56;100922.79;103394;1314;62383;-81
2022/05/03 05:55:25;;;;;;;;;;;;;;;18.96;42.31;100924.84;103042;1313;74423;-83
2022/05/03 05:57:51;;;;;;;;;;;;;;;18.82;42.35;100927.44;103120;1314;74488;-80
2022/05/03 06:00:18;;;;;;;;;;;;;;;18.77;42.72;100933.80;103116;1314;64364;-81
2022/05/03 06:02:45;;;;;;;;;;;;;;;18.73;42.60;100942.25;103318;1314;61303;-80
2022/05/03 06:05:11;;;;;;;;;;;;;;;18.65;42.68;100943.77;103382;1314;73686;-80
2022/05/03 06:07:37;;;;;;;;;;;;;;;18.65;42.82;100945.00;103484;1313;61489;-81
2022/05/03 06:10:04;;;;;;;;;;;;;;;18.69;42.81;100943.36;103634;1313;61327;-81
2022/05/03 06:12:32;;;;;;;;;;;;;;;18.72;42.86;100942.80;103735;1313;61250;-82
2022/05/03 06:14:58;;;;;;;;;;;;;;;18.75;42.79;100939.77;103405;1314;72824;-80
2022/05/03 06:17:23;;;;;;;;;;;;;;;18.77;42.73;100941.83;103410;1315;61322;-81
2022/05/03 06:19:49;;;;;;;;;;;;;;;18.77;42.88;100942.89;103580;1314;61293;-82
2022/05/03 06:22:15;;;;;;;;;;;;;;;18.78;42.84;100944.58;103364;1315;63363;-81
2022/05/03 06:24:45;;;;;;;;;;;;;;;18.81;42.88;100944.66;103801;1306;61298;-81
2022/05/03 06:27:12;;;;;;;;;;;;;;;18.82;42.71;100948.62;104233;1306;75603;-81
2022/05/03 06:29:38;;;;;;;;;;;;;;;18.85;42.86;100944.39;104026;1309;61291;-82
2022/05/03 06:32:04;;;;;;;;;;;;;;;18.86;42.78;100945.20;104056;1306;61570;-80
2022/05/03 06:34:30;;;;;;;;;;;;;;;18.86;42.67;100943.94;104009;1306;61709;-83
2022/05/03 06:36:56;;;;;;;;;;;;;;;18.86;42.60;100950.73;104317;1306;62144;-82
2022/05/03 06:39:22;;;;;;;;;;;;;;;18.85;42.68;100950.23;103948;1306;61329;-84
2022/05/03 06:41:47;;;;;;;;;;;;;;;18.81;42.65;100951.20;104242;1306;61367;-81
2022/05/03 06:44:16;;;;;;;;;;;;;;;18.80;42.54;100953.77;104123;1306;61318;-82
2022/05/03 06:46:42;;;;;;;;;;;;;;;18.81;42.50;100955.11;104089;1306;72953;-81
2022/05/03 06:49:10;;;;;;;;;;;;;;;18.82;42.55;100950.42;103947;1309;61346;-80
2022/05/03 06:51:35;;;;;;;;;;;;;;;18.83;42.65;100950.20;103919;1306;61176;-81
2022/05/03 06:54:20;;;;;;;;;;;;;;;18.81;42.47;100952.45;102974;1306;60710;-81
2022/05/03 06:56:45;;;;;;;;;;;;;;;18.74;42.40;100958.95;103680;1306;61307;-80
2022/05/03 06:59:11;;;;;;;;;;;;;;;18.65;42.21;100960.38;103966;1306;61281;-81
2022/05/03 07:01:37;;;;;;;;;;;;;;;18.56;42.16;100962.13;103795;1303;61324;-85
2022/05/03 07:04:03;;;;;;;;;;;;;;;18.52;42.26;100961.43;103876;1306;61652;-81
2022/05/03 07:06:28;;;;;;;;;;;;;;;18.50;42.22;100960.84;103677;1306;61330;-81
2022/05/03 07:08:54;;;;;;;;;;;;;;;18.48;42.15;100963.10;103775;1308;61451;-81
2022/05/03 07:11:22;;;;;;;;;;;;;;;18.46;42.06;100967.32;103716;1306;74868;-81
2022/05/03 07:13:50;;;;;;;;;;;;;;;18.48;42.38;100963.47;103752;1306;61397;-81
2022/05/03 07:16:15;;;;;;;;;;;;;;;18.53;42.26;100959.40;104100;1306;61292;-81
2022/05/03 07:24:11;;;;;;;;;;;;;;;18.65;42.53;100955.34;103950;1305;61217;-80
2022/05/03 07:26:37;;;;;;;;;;;;;;;18.69;42.49;100954.02;103905;1306;61686;-80
2022/05/03 07:29:07;;;;;;;;;;;;;;;18.73;42.44;100955.64;103953;1309;73646;-81
2022/05/03 07:31:57;;;;;;;;;;;;;;;18.76;42.52;100958.09;104456;1305;74196;-81
2022/05/03 07:34:22;;;;;;;;;;;;;;;18.80;42.29;100961.80;103783;1312;62604;-81
2022/05/03 07:36:49;;;;;;;;;;;;;;;18.82;42.31;100960.61;103522;1312;61839;-84
2022/05/03 07:39:14;;;;;;;;;;;;;;;18.84;42.38;100959.02;103534;1312;61359;-81
2022/05/03 07:41:40;;;;;;;;;;;;;;;18.87;42.20;100961.93;103513;1312;61282;-80
2022/05/03 07:44:07;;;;;;;;;;;;;;;18.88;42.19;100957.95;103569;1312;61609;-82
2022/05/03 07:46:33;;;;;;;;;;;;;;;18.90;42.24;100959.96;103437;1312;61408;-81
2022/05/03 07:49:29;;;;;;;;;;;;;;;18.90;42.15;100955.52;103602;1312;61308;-82
2022/05/03 07:51:54;;;;;;;;;;;;;;;18.89;42.11;100954.34;102589;1317;74810;-80
2022/05/03 07:54:21;;;;;;;;;;;;;;;18.90;41.95;100958.38;102487;1320;60109;-81
2022/05/03 07:56:46;;;;;;;;;;;;;;;18.83;41.58;100961.25;102649;1320;61331;-81
2022/05/03 07:59:12;;;;;;;;;;;;;;;18.75;41.59;100964.55;102943;1317;61934;-80
2022/05/03 08:01:40;;;;;;;;;;;;;;;18.61;41.51;100964.17;104111;1317;59529;-80
2022/05/03 08:04:07;;;;;;;;;;;;;;;18.55;41.47;100964.67;102920;1317;61322;-80
2022/05/03 08:07:00;;;;;;;;;;;;;;;18.56;41.79;100967.77;102716;1317;61303;-82
2022/05/03 08:09:28;;;;;;;;;;;;;;;18.62;41.74;100968.02;102283;1325;73954;-83
2022/05/03 08:11:57;;;;;;;;;;;;;;;18.66;41.88;100965.13;102421;1320;74768;-80
2022/05/03 08:14:23;;;;;;;;;;;;;;;18.70;42.00;100965.38;102578;1322;61369;-81
2022/05/03 08:16:52;;;;;;;;;;;;;;;18.74;41.92;100960.51;102500;1321;62579;-80
2022/05/03 08:19:18;;;;;;;;;;;;;;;18.79;41.94;100961.50;102391;1323;73393;-81
2022/05/03 08:21:43;;;;;;;;;;;;;;;18.81;42.00;100964.05;102527;1322;61426;-81
2022/05/03 08:24:09;;;;;;;;;;;;;;;18.84;41.92;100960.32;102664;1320;61308;-80
2022/05/03 08:26:35;;;;;;;;;;;;;;;18.86;42.00;100958.20;102700;1320;61292;-81
2022/05/03 08:29:02;;;;;;;;;;;;;;;18.89;42.02;100955.91;103019;1316;61296;-82
2022/05/03 08:31:28;;;;;;;;;;;;;;;18.92;41.85;100958.04;103500;1314;61298;-81
2022/05/03 08:33:54;;;;;;;;;;;;;;;18.96;41.93;100955.18;103604;1314;61327;-79
2022/05/03 08:36:19;;;;;;;;;;;;;;;18.98;41.91;100955.04;103346;1314;61306;-80
2022/05/03 08:44:18;;;;;;;;;;;;;;;18.99;41.83;100950.53;103498;1314;75850;-81
2022/05/03 08:47:09;;;;;;;;;;;;;;;19.00;41.84;100948.66;103740;1306;61471;-81
2022/05/03 08:49:48;;;;;;;;;;;;;;;19.01;41.74;100948.42;103492;1314;61276;-83
2022/05/03 08:52:16;;;;;;;;;;;;;;;19.01;41.73;100948.30;103230;1313;72656;-81
2022/05/03 08:54:41;;;;;;;;;;;;;;;18.97;41.71;100944.91;103214;1313;75737;-81
2022/05/03 08:57:07;;;;;;;;;;;;;;;18.96;41.74;100948.77;103401;1314;61591;-80
2022/05/03 08:59:33;;;;;;;;;;;;;;;18.93;41.62;100948.55;103503;1314;61340;-82
2022/05/03 09:01:59;;;;;;;;;;;;;;;18.87;41.46;100943.75;103392;1314;61354;-81
2022/05/03 09:04:24;;;;;;;;;;;;;;;18.76;41.49;100946.89;103391;1314;61399;-83
2022/05/03 09:06:50;;;;;;;;;;;;;;;18.66;41.33;100948.88;103285;1314;61471;-80
2022/05/03 09:09:16;;;;;;;;;;;;;;;18.61;41.33;100950.79;103169;1314;61599;-80
2022/05/03 09:11:44;;;;;;;;;;;;;;;18.62;41.50;100953.91;103087;1317;61394;-81
2022/05/03 09:14:10;;;;;;;;;;;;;;;18.64;41.58;100954.33;103074;1315;72704;-82
2022/05/03 09:16:46;;;;;;;;;;;;;;;18.66;41.59;100952.45;103201;1314;61273;-81
2022/05/03 09:19:21;;;;;;;;;;;;;;;18.69;41.67;100949.40;103319;1314;61098;-81
2022/05/03 09:24:31;;;;;;;;;;;;;;;18.79;41.86;100949.70;103192;1314;72723;-80
2022/05/03 09:26:57;;;;;;;;;;;;;;;18.83;42.01;100943.23;103607;1303;61306;-81
2022/05/03 09:29:27;;;;;;;;;;;;;;;18.87;42.13;100938.73;104274;1305;62178;-81
2022/05/03 09:31:53;;;;;;;;;;;;;;;18.93;42.21;100937.65;103855;1306;60567;-81
2022/05/03 09:34:37;;;;;;;;;;;;;;;18.96;42.21;100935.73;103792;1306;72115;-82
2022/05/03 09:37:05;;;;;;;;;;;;;;;18.96;42.14;100931.10;103761;1306;61319;-83
2022/05/03 09:39:34;;;;;;;;;;;;;;;18.96;42.13;100931.80;103745;1311;61343;-81
2022/05/03 09:42:09;;;;;;;;;;;;;;;19.01;42.19;100930.65;103653;1311;61467;-82
2022/05/03 09:44:50;;;;;;;;;;;;;;;19.05;42.23;100928.23;103657;1311;73849;-81
2022/05/03 09:47:15;;;;;;;;;;;;;;;19.09;42.24;100927.99;103633;1309;76128;-82
2022/05/03 09:49:41;;;;;;;;;;;;;;;19.11;42.42;100925.54;103601;1311;61317;-82
2022/05/03 09:52:29;;;;;;;;;;;;;;;19.13;42.25;100922.59;103353;1309;61196;-81
2022/05/03 09:54:59;;;;;;;;;;;;;;;19.07;41.98;100919.91;103359;1311;74691;-81
2022/05/03 09:57:30;;;;;;;;;;;;;;;19.03;41.79;100915.50;103544;1309;77390;-81
2022/05/03 09:59:55;;;;;;;;;;;;;;;19.01;41.84;100918.86;103457;1311;61262;-83
2022/05/03 10:02:22;;;;;;;;;;;;;;;18.99;41.65;100921.27;103496;1310;61794;-82
2022/05/03 10:04:49;;;;;;;;;;;;;;;18.97;41.44;100921.05;103328;1311;61324;-82
2022/05/03 10:07:15;;;;;;;;;;;;;;;18.84;41.03;100916.27;103480;1311;61325;-81
2022/05/03 10:09:41;;;;;;;;;;;;;;;18.80;41.37;100917.19;103498;1311;61324;-81
2022/05/03 10:12:08;;;;;;;;;;;;;;;18.83;41.38;100913.80;103797;1306;61245;-82
2022/05/03 10:14:34;;;;;;;;;;;;;;;18.86;41.25;100917.02;105434;1303;60609;-81
2022/05/03 10:22:30;;;;;;;;;;;;;;;18.96;41.36;100904.32;103947;1304;61198;-81
2022/05/03 10:24:56;;;;;;;;;;;;;;;18.99;41.37;100903.28;103882;1306;73846;-81
2022/05/03 10:27:25;;;;;;;;;;;;;;;18.98;41.19;100903.34;103951;1306;61411;-81
2022/05/03 10:30:09;;;;;;;;;;;;;;;18.94;40.98;100898.54;104170;1303;61295;-81
2022/05/03 10:32:35;;;;;;;;;;;;;;;18.94;41.05;100896.97;104145;1303;61317;-82
2022/05/03 10:35:03;;;;;;;;;;;;;;;18.93;40.92;100893.63;104164;1305;59979;-81
2022/05/03 10:37:33;;;;;;;;;;;;;;;18.93;40.93;100892.55;104635;1306;73169;-81
2022/05/03 10:40:12;;;;;;;;;;;;;;;18.95;40.66;100888.52;104131;1303;61215;-81
2022/05/03 10:42:38;;;;;;;;;;;;;;;18.97;40.68;100893.25;103912;1306;61230;-84
2022/05/03 10:45:14;;;;;;;;;;;;;;;18.95;40.39;100893.38;104109;1304;72764;-82
2022/05/03 10:47:41;;;;;;;;;;;;;;;18.88;40.02;100891.08;103798;1306;74962;-81
2022/05/03 10:50:11;;;;;;;;;;;;;;;18.85;40.06;100888.94;105488;1303;59325;-82
2022/05/03 10:52:36;;;;;;;;;;;;;;;18.81;39.86;100883.09;105159;1306;60637;-82
2022/05/03 10:55:06;;;;;;;;;;;;;;;18.81;39.89;100885.24;105286;1306;59766;-81
2022/05/03 10:57:32;;;;;;;;;;;;;;;18.81;39.70;100882.75;105569;1303;74694;-82
2022/05/03 10:59:57;;;;;;;;;;;;;;;18.79;39.39;100883.73;105518;1306;59705;-82
2022/05/03 11:02:23;;;;;;;;;;;;;;;18.81;39.24;100887.76;105454;1306;59441;-80
2022/05/03 11:05:12;;;;;;;;;;;;;;;18.78;39.09;100884.90;105443;1305;59648;-81
2022/05/03 11:07:38;;;;;;;;;;;;;;;18.67;38.70;100883.39;105459;1303;75932;-81
2022/05/03 11:10:22;;;;;;;;;;;;;;;18.66;38.81;100875.25;105468;1306;59739;-82
2022/05/03 11:12:50;;;;;;;;;;;;;;;18.70;38.87;100878.37;105572;1303;60857;-82
2022/05/03 11:15:16;;;;;;;;;;;;;;;18.74;38.96;100873.14;105552;1304;73662;-82
2022/05/03 11:17:42;;;;;;;;;;;;;;;18.79;38.97;100872.89;105440;1306;59265;-81
2022/05/03 11:20:08;;;;;;;;;;;;;;;18.82;39.18;100866.44;105440;1306;59590;-82
2022/05/03 11:22:35;;;;;;;;;;;;;;;18.86;39.24;100861.73;105591;1303;59142;-82
2022/05/03 11:25:07;;;;;;;;;;;;;;;18.91;39.26;100862.55;105494;1305;59444;-81
2022/05/03 11:27:34;;;;;;;;;;;;;;;18.92;39.12;100860.90;105597;1304;75788;-81
2022/05/03 11:30:04;;;;;;;;;;;;;;;18.92;39.12;100858.19;105625;1303;60068;-81
2022/05/03 11:32:37;;;;;;;;;;;;;;;18.94;39.03;100859.52;104383;1303;61260;-81
2022/05/03 11:35:03;;;;;;;;;;;;;;;18.93;38.97;100855.31;105473;1306;72856;-81
2022/05/03 11:37:29;;;;;;;;;;;;;;;18.93;39.15;100850.85;105636;1303;58591;-81
2022/05/03 11:40:02;;;;;;;;;;;;;;;18.97;39.18;100843.49;105468;1303;59589;-82
2022/05/03 11:42:27;;;;;;;;;;;;;;;18.90;38.84;100843.15;105663;1303;59987;-82
2022/05/03 11:44:54;;;;;;;;;;;;;;;18.85;38.79;100840.96;105392;1303;60440;-81
2022/05/03 11:47:21;;;;;;;;;;;;;;;18.78;38.61;100841.70;105425;1306;59522;-81
2022/05/03 11:49:47;;;;;;;;;;;;;;;18.74;38.71;100839.63;105352;1306;60129;-81
2022/05/03 11:57:43;;;;;;;;;;;;;;;18.74;38.45;100840.02;104002;1303;74559;-81
2022/05/03 12:00:13;;;;;;;;;;;;;;;18.75;38.38;100840.27;104054;1306;61322;-81
2022/05/03 12:02:42;;;;;;;;;;;;;;;18.77;38.58;100831.61;103962;1303;61349;-81
2022/05/03 12:05:10;;;;;;;;;;;;;;;18.79;38.31;100827.57;103870;1306;73742;-81
2022/05/03 12:07:36;;;;;;;;;;;;;;;18.81;38.40;100819.99;104030;1303;75776;-81
2022/05/03 12:10:02;;;;;;;;;;;;;;;18.86;38.81;100818.41;104088;1306;61604;-80
2022/05/03 12:12:43;;;;;;;;;;;;;;;18.92;38.72;100819.15;103947;1304;61310;-81
2022/05/03 12:15:15;;;;;;;;;;;;;;;18.97;38.81;100814.41;104213;1306;73948;-82
2022/05/03 12:17:52;;;;;;;;;;;;;;;19.00;38.82;100811.89;104113;1307;75805;-81
2022/05/03 12:20:18;;;;;;;;;;;;;;;19.02;38.63;100811.97;104197;1306;61122;-81
2022/05/03 12:22:44;;;;;;;;;;;;;;;18.98;38.42;100814.48;104307;1306;61291;-82
2022/05/03 12:25:14;;;;;;;;;;;;;;;18.93;38.28;100812.29;104250;1306;61320;-82
2022/05/03 12:27:49;;;;;;;;;;;;;;;18.95;38.42;100809.52;104299;1303;75098;-82
2022/05/03 12:30:16;;;;;;;;;;;;;;;19.00;38.55;100804.95;104234;1306;61278;-82
2022/05/03 12:32:51;;;;;;;;;;;;;;;19.04;38.61;100803.80;104070;1306;59540;-82
2022/05/03 12:35:27;;;;;;;;;;;;;;;19.07;38.70;100803.91;104388;1306;61351;-81
2022/05/03 12:38:13;;;;;;;;;;;;;;;19.12;38.72;100803.50;104370;1306;74918;-81
2022/05/03 12:41:03;;;;;;;;;;;;;;;19.15;38.75;100802.36;104480;1306;61265;-82
2022/05/03 12:43:31;;;;;;;;;;;;;;;19.18;38.76;100799.15;104383;1306;61400;-82
2022/05/03 12:45:58;;;;;;;;;;;;;;;19.20;38.67;100798.71;104427;1305;72680;-83
2022/05/03 12:48:49;;;;;;;;;;;;;;;19.21;38.84;100798.27;104188;1306;74791;-81
2022/05/03 12:51:15;;;;;;;;;;;;;;;19.21;38.62;100799.00;103681;1313;61406;-82
2022/05/03 12:53:52;;;;;;;;;;;;;;;19.18;38.71;100798.48;103781;1312;61297;-82
2022/05/03 12:59:15;;;;;;;;;;;;;;;19.17;38.60;100802.46;103884;1313;73715;-82
2022/05/03 13:01:42;;;;;;;;;;;;;;;19.15;38.41;100802.75;104018;1313;61339;-82
2022/05/03 13:04:30;;;;;;;;;;;;;;;19.12;38.57;100804.57;103262;1319;61483;-83
2022/05/03 13:07:13;;;;;;;;;;;;;;;19.09;38.46;100803.64;102948;1320;73864;-82
2022/05/03 13:09:39;;;;;;;;;;;;;;;19.08;38.47;100798.55;103058;1319;61338;-82
2022/05/03 13:12:13;;;;;;;;;;;;;;;19.07;38.51;100798.25;103003;1318;61583;-83
2022/05/03 13:14:50;;;;;;;;;;;;;;;19.07;38.71;100797.16;103167;1319;59680;-83
2022/05/03 13:17:15;;;;;;;;;;;;;;;19.09;38.70;100797.60;102783;1320;72979;-82
2022/05/03 13:19:41;;;;;;;;;;;;;;;19.08;38.75;100796.05;103307;1319;61331;-82
2022/05/03 13:22:18;;;;;;;;;;;;;;;19.08;38.63;100795.88;103065;1320;61310;-83
2022/05/03 13:24:46;;;;;;;;;;;;;;;19.09;38.77;100793.10;103319;1319;61377;-82
2022/05/03 13:27:32;;;;;;;;;;;;;;;19.11;38.95;100794.98;103237;1319;73298;-83
2022/05/03 13:30:07;;;;;;;;;;;;;;;19.12;38.92;100793.30;103397;1314;75609;-83
2022/05/03 13:32:57;;;;;;;;;;;;;;;19.13;38.91;100792.86;103971;1314;61174;-84
2022/05/03 13:42:08;;;;;;;;;;;;;;;19.16;38.84;100798.19;104418;1304;73414;-82
2022/05/03 13:44:53;;;;;;;;;;;;;;;19.17;38.79;100793.85;104126;1313;61317;-81
2022/05/03 13:47:39;;;;;;;;;;;;;;;19.18;38.80;100792.20;104283;1313;61342;-84
2022/05/03 13:50:14;;;;;;;;;;;;;;;19.19;38.67;100793.02;104195;1314;73223;-82
2022/05/03 13:53:02;;;;;;;;;;;;;;;19.20;38.75;100797.09;104258;1313;74965;-83
2022/05/03 13:55:48;;;;;;;;;;;;;;;19.20;38.75;100795.63;104320;1313;61629;-84
2022/05/03 13:58:34;;;;;;;;;;;;;;;19.20;38.87;100793.13;104372;1313;61198;-87
2022/05/03 14:01:15;;;;;;;;;;;;;;;19.20;38.89;100797.60;104274;1313;72749;-85
2022/05/03 14:04:02;;;;;;;;;;;;;;;19.19;38.80;100797.86;104093;1314;75008;-83
2022/05/03 14:06:51;;;;;;;;;;;;;;;19.20;38.88;100801.56;103553;1319;61784;-85
2022/05/03 14:09:26;;;;;;;;;;;;;;;19.19;39.05;100796.39;103406;1319;59485;-85
2022/05/03 14:12:11;;;;;;;;;;;;;;;19.21;39.00;100798.27;103606;1318;74042;-82
2022/05/03 14:14:46;;;;;;;;;;;;;;;19.21;39.00;100797.02;102773;1325;73912;-86
2022/05/03 14:17:42;;;;;;;;;;;;;;;19.21;38.95;100791.83;102970;1325;61436;-86
2022/05/03 14:20:35;;;;;;;;;;;;;;;19.21;39.00;100787.89;102672;1326;61397;-83
2022/05/03 14:23:21;;;;;;;;;;;;;;;19.22;38.94;100789.61;102894;1322;73054;-83
2022/05/03 14:26:12;;;;;;;;;;;;;;;19.23;38.94;100793.84;103577;1317;75847;-86
2022/05/03 14:29:01;;;;;;;;;;;;;;;19.24;39.07;100789.88;103585;1318;61160;-85
2022/05/03 14:31:26;;;;;;;;;;;;;;;19.25;39.13;100789.65;103657;1317;61288;-82
2022/05/03 14:33:55;;;;;;;;;;;;;;;19.25;39.12;100789.95;103236;1320;61440;-81